sensor_id;sensor_type;location;lat;lon;timestamp;P1;durP1;ratioP1;P2;durP2;ratioP2
39434;SDS011;66825;51.880;-0.518;2023-05-07T00:00:09;0.95;;;0.47;;
39434;SDS011;66825;51.880;-0.518;2023-05-07T00:02:36;0.47;;;0.40;;
39434;SDS011;66825;51.880;-0.518;2023-05-07T00:05:02;0.55;;;0.30;;
39434;SDS011;66825;51.880;-0.518;2023-05-07T00:07:28;0.70;;;0.50;;
39434;SDS011;66825;51.880;-0.518;2023-05-07T00:09:54;0.60;;;0.32;;
39434;SDS011;66825;51.880;-0.518;2023-05-07T00:12:20;0.73;;;0.50;;
39434;SDS011;66825;51.880;-0.518;2023-05-07T00:14:45;0.57;;;0.40;;
39434;SDS011;66825;51.880;-0.518;2023-05-07T00:17:11;0.52;;;0.30;;
39434;SDS011;66825;51.880;-0.518;2023-05-07T00:19:36;0.40;;;0.40;;
39434;SDS011;66825;51.880;-0.518;2023-05-07T00:22:02;0.82;;;0.50;;
39434;SDS011;66825;51.880;-0.518;2023-05-07T00:24:27;0.50;;;0.30;;
39434;SDS011;66825;51.880;-0.518;2023-05-07T00:26:53;0.90;;;0.40;;
39434;SDS011;66825;51.880;-0.518;2023-05-07T00:29:18;0.60;;;0.50;;
39434;SDS011;66825;51.880;-0.518;2023-05-07T00:31:44;0.30;;;0.20;;
39434;SDS011;66825;51.880;-0.518;2023-05-07T00:34:09;0.43;;;0.30;;
39434;SDS011;66825;51.880;-0.518;2023-05-07T00:36:35;0.50;;;0.30;;
39434;SDS011;66825;51.880;-0.518;2023-05-07T00:39:00;0.63;;;0.32;;
39434;SDS011;66825;51.880;-0.518;2023-05-07T00:41:28;0.50;;;0.32;;
39434;SDS011;66825;51.880;-0.518;2023-05-07T00:43:55;0.32;;;0.30;;
39434;SDS011;66825;51.880;-0.518;2023-05-07T00:46:21;0.60;;;0.40;;
39434;SDS011;66825;51.880;-0.518;2023-05-07T00:48:47;0.40;;;0.38;;
39434;SDS011;66825;51.880;-0.518;2023-05-07T00:51:14;0.60;;;0.30;;
39434;SDS011;66825;51.880;-0.518;2023-05-07T00:53:40;0.55;;;0.30;;
39434;SDS011;66825;51.880;-0.518;2023-05-07T00:56:06;0.30;;;0.30;;
39434;SDS011;66825;51.880;-0.518;2023-05-07T00:58:32;0.57;;;0.40;;
39434;SDS011;66825;51.880;-0.518;2023-05-07T01:00:58;0.45;;;0.35;;
39434;SDS011;66825;51.880;-0.518;2023-05-07T01:03:24;0.40;;;0.40;;
39434;SDS011;66825;51.880;-0.518;2023-05-07T01:05:50;0.32;;;0.30;;
39434;SDS011;66825;51.880;-0.518;2023-05-07T01:08:18;0.50;;;0.40;;
39434;SDS011;66825;51.880;-0.518;2023-05-07T01:10:45;0.60;;;0.40;;
39434;SDS011;66825;51.880;-0.518;2023-05-07T01:13:12;0.50;;;0.40;;
39434;SDS011;66825;51.880;-0.518;2023-05-07T01:15:39;0.50;;;0.40;;
39434;SDS011;66825;51.880;-0.518;2023-05-07T01:18:06;0.40;;;0.30;;
39434;SDS011;66825;51.880;-0.518;2023-05-07T01:20:32;0.85;;;0.50;;
39434;SDS011;66825;51.880;-0.518;2023-05-07T01:22:58;0.93;;;0.40;;
39434;SDS011;66825;51.880;-0.518;2023-05-07T01:25:25;0.65;;;0.40;;
39434;SDS011;66825;51.880;-0.518;2023-05-07T01:27:50;0.60;;;0.40;;
39434;SDS011;66825;51.880;-0.518;2023-05-07T01:30:16;0.60;;;0.50;;
39434;SDS011;66825;51.880;-0.518;2023-05-07T01:32:47;0.40;;;0.30;;
39434;SDS011;66825;51.880;-0.518;2023-05-07T01:35:18;0.40;;;0.40;;
39434;SDS011;66825;51.880;-0.518;2023-05-07T01:37:46;0.43;;;0.30;;
39434;SDS011;66825;51.880;-0.518;2023-05-07T01:40:12;0.40;;;0.40;;
39434;SDS011;66825;51.880;-0.518;2023-05-07T01:42:38;0.70;;;0.57;;
39434;SDS011;66825;51.880;-0.518;2023-05-07T01:45:05;0.40;;;0.40;;
39434;SDS011;66825;51.880;-0.518;2023-05-07T01:47:31;0.73;;;0.50;;
39434;SDS011;66825;51.880;-0.518;2023-05-07T01:49:58;0.75;;;0.40;;
39434;SDS011;66825;51.880;-0.518;2023-05-07T01:52:24;0.52;;;0.40;;
39434;SDS011;66825;51.880;-0.518;2023-05-07T01:54:50;1.00;;;0.40;;
39434;SDS011;66825;51.880;-0.518;2023-05-07T01:57:16;0.63;;;0.50;;
39434;SDS011;66825;51.880;-0.518;2023-05-07T01:59:41;0.60;;;0.40;;
39434;SDS011;66825;51.880;-0.518;2023-05-07T02:02:07;0.60;;;0.40;;
39434;SDS011;66825;51.880;-0.518;2023-05-07T02:04:32;0.30;;;0.20;;
39434;SDS011;66825;51.880;-0.518;2023-05-07T02:06:57;0.45;;;0.40;;
39434;SDS011;66825;51.880;-0.518;2023-05-07T02:09:23;0.47;;;0.30;;
39434;SDS011;66825;51.880;-0.518;2023-05-07T02:11:48;0.40;;;0.40;;
39434;SDS011;66825;51.880;-0.518;2023-05-07T02:14:14;0.68;;;0.47;;
39434;SDS011;66825;51.880;-0.518;2023-05-07T02:16:40;0.70;;;0.50;;
39434;SDS011;66825;51.880;-0.518;2023-05-07T02:19:06;0.50;;;0.40;;
39434;SDS011;66825;51.880;-0.518;2023-05-07T02:21:31;0.98;;;0.40;;
39434;SDS011;66825;51.880;-0.518;2023-05-07T02:23:57;0.50;;;0.45;;
39434;SDS011;66825;51.880;-0.518;2023-05-07T02:26:22;0.40;;;0.35;;
39434;SDS011;66825;51.880;-0.518;2023-05-07T02:28:47;0.75;;;0.52;;
39434;SDS011;66825;51.880;-0.518;2023-05-07T02:31:13;0.47;;;0.30;;
39434;SDS011;66825;51.880;-0.518;2023-05-07T02:33:38;0.70;;;0.50;;
39434;SDS011;66825;51.880;-0.518;2023-05-07T02:36:10;0.60;;;0.50;;
39434;SDS011;66825;51.880;-0.518;2023-05-07T02:38:37;0.50;;;0.40;;
39434;SDS011;66825;51.880;-0.518;2023-05-07T02:41:03;0.75;;;0.40;;
39434;SDS011;66825;51.880;-0.518;2023-05-07T02:43:28;0.80;;;0.50;;
39434;SDS011;66825;51.880;-0.518;2023-05-07T02:46:04;0.40;;;0.40;;
39434;SDS011;66825;51.880;-0.518;2023-05-07T02:48:31;0.40;;;0.35;;
39434;SDS011;66825;51.880;-0.518;2023-05-07T02:50:56;0.55;;;0.43;;
39434;SDS011;66825;51.880;-0.518;2023-05-07T02:53:23;0.40;;;0.40;;
39434;SDS011;66825;51.880;-0.518;2023-05-07T02:55:51;0.50;;;0.30;;
39434;SDS011;66825;51.880;-0.518;2023-05-07T02:58:17;0.68;;;0.40;;
39434;SDS011;66825;51.880;-0.518;2023-05-07T03:00:43;0.60;;;0.50;;
39434;SDS011;66825;51.880;-0.518;2023-05-07T03:03:08;0.95;;;0.40;;
39434;SDS011;66825;51.880;-0.518;2023-05-07T03:05:34;0.90;;;0.40;;
39434;SDS011;66825;51.880;-0.518;2023-05-07T03:07:59;0.60;;;0.40;;
39434;SDS011;66825;51.880;-0.518;2023-05-07T03:10:24;0.50;;;0.40;;
39434;SDS011;66825;51.880;-0.518;2023-05-07T03:12:50;0.47;;;0.40;;
39434;SDS011;66825;51.880;-0.518;2023-05-07T03:15:15;0.90;;;0.60;;
39434;SDS011;66825;51.880;-0.518;2023-05-07T03:17:41;0.50;;;0.43;;
39434;SDS011;66825;51.880;-0.518;2023-05-07T03:20:07;0.70;;;0.40;;
39434;SDS011;66825;51.880;-0.518;2023-05-07T03:22:34;0.70;;;0.50;;
39434;SDS011;66825;51.880;-0.518;2023-05-07T03:25:00;0.47;;;0.40;;
39434;SDS011;66825;51.880;-0.518;2023-05-07T03:27:25;0.80;;;0.50;;
39434;SDS011;66825;51.880;-0.518;2023-05-07T03:29:51;0.70;;;0.50;;
39434;SDS011;66825;51.880;-0.518;2023-05-07T03:32:16;0.70;;;0.60;;
39434;SDS011;66825;51.880;-0.518;2023-05-07T03:34:42;0.73;;;0.40;;
39434;SDS011;66825;51.880;-0.518;2023-05-07T03:37:07;1.00;;;0.50;;
39434;SDS011;66825;51.880;-0.518;2023-05-07T03:39:33;0.90;;;0.60;;
39434;SDS011;66825;51.880;-0.518;2023-05-07T03:41:58;0.60;;;0.57;;
39434;SDS011;66825;51.880;-0.518;2023-05-07T03:44:24;0.50;;;0.40;;
39434;SDS011;66825;51.880;-0.518;2023-05-07T03:46:49;0.45;;;0.40;;
39434;SDS011;66825;51.880;-0.518;2023-05-07T03:49:15;0.73;;;0.55;;
39434;SDS011;66825;51.880;-0.518;2023-05-07T03:51:40;0.60;;;0.40;;
39434;SDS011;66825;51.880;-0.518;2023-05-07T03:54:06;0.50;;;0.40;;
39434;SDS011;66825;51.880;-0.518;2023-05-07T03:56:32;0.60;;;0.40;;
39434;SDS011;66825;51.880;-0.518;2023-05-07T03:58:57;0.70;;;0.55;;
39434;SDS011;66825;51.880;-0.518;2023-05-07T04:01:23;0.60;;;0.50;;
39434;SDS011;66825;51.880;-0.518;2023-05-07T04:03:48;1.15;;;0.60;;
39434;SDS011;66825;51.880;-0.518;2023-05-07T04:06:15;0.80;;;0.60;;
39434;SDS011;66825;51.880;-0.518;2023-05-07T04:08:42;0.70;;;0.40;;
39434;SDS011;66825;51.880;-0.518;2023-05-07T04:11:07;0.57;;;0.50;;
39434;SDS011;66825;51.880;-0.518;2023-05-07T04:13:33;0.50;;;0.50;;
39434;SDS011;66825;51.880;-0.518;2023-05-07T04:16:00;0.60;;;0.50;;
39434;SDS011;66825;51.880;-0.518;2023-05-07T04:18:27;0.70;;;0.50;;
39434;SDS011;66825;51.880;-0.518;2023-05-07T04:20:52;0.73;;;0.50;;
39434;SDS011;66825;51.880;-0.518;2023-05-07T04:23:18;0.63;;;0.50;;
39434;SDS011;66825;51.880;-0.518;2023-05-07T04:25:43;0.60;;;0.50;;
39434;SDS011;66825;51.880;-0.518;2023-05-07T04:28:10;0.80;;;0.45;;
39434;SDS011;66825;51.880;-0.518;2023-05-07T04:30:36;0.50;;;0.47;;
39434;SDS011;66825;51.880;-0.518;2023-05-07T04:33:02;0.90;;;0.60;;
39434;SDS011;66825;51.880;-0.518;2023-05-07T04:35:27;0.52;;;0.50;;
39434;SDS011;66825;51.880;-0.518;2023-05-07T04:37:53;0.40;;;0.40;;
39434;SDS011;66825;51.880;-0.518;2023-05-07T04:40:18;0.60;;;0.45;;
39434;SDS011;66825;51.880;-0.518;2023-05-07T04:42:44;0.50;;;0.50;;
39434;SDS011;66825;51.880;-0.518;2023-05-07T04:45:09;0.60;;;0.60;;
39434;SDS011;66825;51.880;-0.518;2023-05-07T04:47:35;0.68;;;0.50;;
39434;SDS011;66825;51.880;-0.518;2023-05-07T04:50:01;0.60;;;0.40;;
39434;SDS011;66825;51.880;-0.518;2023-05-07T04:52:26;0.95;;;0.68;;
39434;SDS011;66825;51.880;-0.518;2023-05-07T04:54:52;0.70;;;0.60;;
39434;SDS011;66825;51.880;-0.518;2023-05-07T04:57:17;0.80;;;0.60;;
39434;SDS011;66825;51.880;-0.518;2023-05-07T04:59:43;0.52;;;0.50;;
39434;SDS011;66825;51.880;-0.518;2023-05-07T05:02:12;0.60;;;0.50;;
39434;SDS011;66825;51.880;-0.518;2023-05-07T05:04:37;0.80;;;0.52;;
39434;SDS011;66825;51.880;-0.518;2023-05-07T05:07:03;0.70;;;0.52;;
39434;SDS011;66825;51.880;-0.518;2023-05-07T05:09:29;0.60;;;0.50;;
39434;SDS011;66825;51.880;-0.518;2023-05-07T05:11:55;0.50;;;0.50;;
39434;SDS011;66825;51.880;-0.518;2023-05-07T05:14:20;0.57;;;0.50;;
39434;SDS011;66825;51.880;-0.518;2023-05-07T05:16:46;0.45;;;0.40;;
39434;SDS011;66825;51.880;-0.518;2023-05-07T05:19:11;0.70;;;0.70;;
39434;SDS011;66825;51.880;-0.518;2023-05-07T05:21:36;0.68;;;0.60;;
39434;SDS011;66825;51.880;-0.518;2023-05-07T05:24:02;0.70;;;0.60;;
39434;SDS011;66825;51.880;-0.518;2023-05-07T05:26:28;0.60;;;0.60;;
39434;SDS011;66825;51.880;-0.518;2023-05-07T05:28:53;0.70;;;0.60;;
39434;SDS011;66825;51.880;-0.518;2023-05-07T05:31:18;0.70;;;0.60;;
39434;SDS011;66825;51.880;-0.518;2023-05-07T05:33:44;0.65;;;0.50;;
39434;SDS011;66825;51.880;-0.518;2023-05-07T05:36:10;0.80;;;0.60;;
39434;SDS011;66825;51.880;-0.518;2023-05-07T05:38:36;0.60;;;0.60;;
39434;SDS011;66825;51.880;-0.518;2023-05-07T05:41:01;0.57;;;0.50;;
39434;SDS011;66825;51.880;-0.518;2023-05-07T05:43:27;0.57;;;0.50;;
39434;SDS011;66825;51.880;-0.518;2023-05-07T05:45:52;0.55;;;0.55;;
39434;SDS011;66825;51.880;-0.518;2023-05-07T05:48:18;0.60;;;0.50;;
39434;SDS011;66825;51.880;-0.518;2023-05-07T05:50:43;0.50;;;0.50;;
39434;SDS011;66825;51.880;-0.518;2023-05-07T05:53:09;0.80;;;0.70;;
39434;SDS011;66825;51.880;-0.518;2023-05-07T05:55:34;1.10;;;0.60;;
39434;SDS011;66825;51.880;-0.518;2023-05-07T05:58:00;0.63;;;0.52;;
39434;SDS011;66825;51.880;-0.518;2023-05-07T06:00:27;0.90;;;0.60;;
39434;SDS011;66825;51.880;-0.518;2023-05-07T06:02:54;0.73;;;0.60;;
39434;SDS011;66825;51.880;-0.518;2023-05-07T06:05:20;0.70;;;0.60;;
39434;SDS011;66825;51.880;-0.518;2023-05-07T06:07:45;0.57;;;0.47;;
39434;SDS011;66825;51.880;-0.518;2023-05-07T06:10:11;0.70;;;0.70;;
39434;SDS011;66825;51.880;-0.518;2023-05-07T06:12:36;0.50;;;0.50;;
39434;SDS011;66825;51.880;-0.518;2023-05-07T06:15:02;0.70;;;0.65;;
39434;SDS011;66825;51.880;-0.518;2023-05-07T06:17:28;1.00;;;0.60;;
39434;SDS011;66825;51.880;-0.518;2023-05-07T06:19:53;0.60;;;0.57;;
39434;SDS011;66825;51.880;-0.518;2023-05-07T06:22:19;0.70;;;0.60;;
39434;SDS011;66825;51.880;-0.518;2023-05-07T06:24:44;0.70;;;0.57;;
39434;SDS011;66825;51.880;-0.518;2023-05-07T06:27:10;0.43;;;0.43;;
39434;SDS011;66825;51.880;-0.518;2023-05-07T06:29:35;0.60;;;0.60;;
39434;SDS011;66825;51.880;-0.518;2023-05-07T06:32:07;0.98;;;0.60;;
39434;SDS011;66825;51.880;-0.518;2023-05-07T06:34:36;0.80;;;0.70;;
39434;SDS011;66825;51.880;-0.518;2023-05-07T06:37:02;1.00;;;0.63;;
39434;SDS011;66825;51.880;-0.518;2023-05-07T06:39:28;0.82;;;0.50;;
39434;SDS011;66825;51.880;-0.518;2023-05-07T06:41:53;0.73;;;0.60;;
39434;SDS011;66825;51.880;-0.518;2023-05-07T06:44:19;0.88;;;0.70;;
39434;SDS011;66825;51.880;-0.518;2023-05-07T06:46:45;0.70;;;0.60;;
39434;SDS011;66825;51.880;-0.518;2023-05-07T06:49:11;0.70;;;0.60;;
39434;SDS011;66825;51.880;-0.518;2023-05-07T06:51:38;0.82;;;0.50;;
39434;SDS011;66825;51.880;-0.518;2023-05-07T06:54:03;0.82;;;0.80;;
39434;SDS011;66825;51.880;-0.518;2023-05-07T06:56:29;0.70;;;0.70;;
39434;SDS011;66825;51.880;-0.518;2023-05-07T06:58:55;0.77;;;0.57;;
39434;SDS011;66825;51.880;-0.518;2023-05-07T07:01:21;0.70;;;0.70;;
39434;SDS011;66825;51.880;-0.518;2023-05-07T07:03:46;0.70;;;0.60;;
39434;SDS011;66825;51.880;-0.518;2023-05-07T07:06:12;0.70;;;0.50;;
39434;SDS011;66825;51.880;-0.518;2023-05-07T07:08:37;0.80;;;0.60;;
39434;SDS011;66825;51.880;-0.518;2023-05-07T07:11:04;0.60;;;0.60;;
39434;SDS011;66825;51.880;-0.518;2023-05-07T07:13:30;0.63;;;0.55;;
39434;SDS011;66825;51.880;-0.518;2023-05-07T07:15:56;0.85;;;0.70;;
39434;SDS011;66825;51.880;-0.518;2023-05-07T07:18:22;0.68;;;0.60;;
39434;SDS011;66825;51.880;-0.518;2023-05-07T07:20:47;0.77;;;0.70;;
39434;SDS011;66825;51.880;-0.518;2023-05-07T07:23:13;0.68;;;0.60;;
39434;SDS011;66825;51.880;-0.518;2023-05-07T07:25:38;0.75;;;0.70;;
39434;SDS011;66825;51.880;-0.518;2023-05-07T07:28:04;0.70;;;0.60;;
39434;SDS011;66825;51.880;-0.518;2023-05-07T07:30:30;0.60;;;0.60;;
39434;SDS011;66825;51.880;-0.518;2023-05-07T07:32:55;0.57;;;0.55;;
39434;SDS011;66825;51.880;-0.518;2023-05-07T07:35:27;0.60;;;0.60;;
39434;SDS011;66825;51.880;-0.518;2023-05-07T07:37:53;0.73;;;0.65;;
39434;SDS011;66825;51.880;-0.518;2023-05-07T07:40:18;0.55;;;0.50;;
39434;SDS011;66825;51.880;-0.518;2023-05-07T07:42:43;0.57;;;0.50;;
39434;SDS011;66825;51.880;-0.518;2023-05-07T07:45:09;0.52;;;0.50;;
39434;SDS011;66825;51.880;-0.518;2023-05-07T07:47:35;0.60;;;0.60;;
39434;SDS011;66825;51.880;-0.518;2023-05-07T07:50:00;0.63;;;0.63;;
39434;SDS011;66825;51.880;-0.518;2023-05-07T07:52:26;0.55;;;0.50;;
39434;SDS011;66825;51.880;-0.518;2023-05-07T07:54:51;0.70;;;0.70;;
39434;SDS011;66825;51.880;-0.518;2023-05-07T07:57:17;0.80;;;0.60;;
39434;SDS011;66825;51.880;-0.518;2023-05-07T07:59:42;0.93;;;0.68;;
39434;SDS011;66825;51.880;-0.518;2023-05-07T08:02:08;0.77;;;0.50;;
39434;SDS011;66825;51.880;-0.518;2023-05-07T08:04:34;0.60;;;0.60;;
39434;SDS011;66825;51.880;-0.518;2023-05-07T08:07:00;0.70;;;0.52;;
39434;SDS011;66825;51.880;-0.518;2023-05-07T08:09:25;0.80;;;0.68;;
39434;SDS011;66825;51.880;-0.518;2023-05-07T08:11:51;0.80;;;0.52;;
39434;SDS011;66825;51.880;-0.518;2023-05-07T08:14:16;0.60;;;0.50;;
39434;SDS011;66825;51.880;-0.518;2023-05-07T08:16:42;0.50;;;0.50;;
39434;SDS011;66825;51.880;-0.518;2023-05-07T08:19:08;0.50;;;0.50;;
39434;SDS011;66825;51.880;-0.518;2023-05-07T08:21:33;0.77;;;0.68;;
39434;SDS011;66825;51.880;-0.518;2023-05-07T08:23:59;0.55;;;0.50;;
39434;SDS011;66825;51.880;-0.518;2023-05-07T08:26:25;0.82;;;0.63;;
39434;SDS011;66825;51.880;-0.518;2023-05-07T08:28:50;0.63;;;0.50;;
39434;SDS011;66825;51.880;-0.518;2023-05-07T08:31:16;0.98;;;0.55;;
39434;SDS011;66825;51.880;-0.518;2023-05-07T08:33:41;0.70;;;0.60;;
39434;SDS011;66825;51.880;-0.518;2023-05-07T08:36:07;0.85;;;0.60;;
39434;SDS011;66825;51.880;-0.518;2023-05-07T08:38:32;0.63;;;0.60;;
39434;SDS011;66825;51.880;-0.518;2023-05-07T08:40:58;1.20;;;0.70;;
39434;SDS011;66825;51.880;-0.518;2023-05-07T08:43:24;0.60;;;0.60;;
39434;SDS011;66825;51.880;-0.518;2023-05-07T08:45:53;0.50;;;0.40;;
39434;SDS011;66825;51.880;-0.518;2023-05-07T08:48:20;0.68;;;0.50;;
39434;SDS011;66825;51.880;-0.518;2023-05-07T08:50:49;0.57;;;0.47;;
39434;SDS011;66825;51.880;-0.518;2023-05-07T08:53:15;0.63;;;0.50;;
39434;SDS011;66825;51.880;-0.518;2023-05-07T08:55:42;0.90;;;0.60;;
39434;SDS011;66825;51.880;-0.518;2023-05-07T08:58:07;0.50;;;0.50;;
39434;SDS011;66825;51.880;-0.518;2023-05-07T09:00:33;0.60;;;0.55;;
39434;SDS011;66825;51.880;-0.518;2023-05-07T09:03:00;0.50;;;0.40;;
39434;SDS011;66825;51.880;-0.518;2023-05-07T09:05:25;0.57;;;0.57;;
39434;SDS011;66825;51.880;-0.518;2023-05-07T09:07:51;0.50;;;0.50;;
39434;SDS011;66825;51.880;-0.518;2023-05-07T09:10:16;0.50;;;0.50;;
39434;SDS011;66825;51.880;-0.518;2023-05-07T09:12:42;1.08;;;0.70;;
39434;SDS011;66825;51.880;-0.518;2023-05-07T09:15:07;0.50;;;0.50;;
39434;SDS011;66825;51.880;-0.518;2023-05-07T09:17:33;0.50;;;0.47;;
39434;SDS011;66825;51.880;-0.518;2023-05-07T09:20:02;0.95;;;0.50;;
39434;SDS011;66825;51.880;-0.518;2023-05-07T09:22:33;0.95;;;0.60;;
39434;SDS011;66825;51.880;-0.518;2023-05-07T09:24:59;0.60;;;0.50;;
39434;SDS011;66825;51.880;-0.518;2023-05-07T09:27:25;0.50;;;0.50;;
39434;SDS011;66825;51.880;-0.518;2023-05-07T09:29:51;0.65;;;0.55;;
39434;SDS011;66825;51.880;-0.518;2023-05-07T09:32:16;0.40;;;0.40;;
39434;SDS011;66825;51.880;-0.518;2023-05-07T09:34:42;0.57;;;0.40;;
39434;SDS011;66825;51.880;-0.518;2023-05-07T09:37:08;0.50;;;0.40;;
39434;SDS011;66825;51.880;-0.518;2023-05-07T09:39:42;0.60;;;0.57;;
39434;SDS011;66825;51.880;-0.518;2023-05-07T09:42:12;0.63;;;0.47;;
39434;SDS011;66825;51.880;-0.518;2023-05-07T09:44:39;0.40;;;0.40;;
39434;SDS011;66825;51.880;-0.518;2023-05-07T09:47:06;0.40;;;0.40;;
39434;SDS011;66825;51.880;-0.518;2023-05-07T09:49:35;0.43;;;0.40;;
39434;SDS011;66825;51.880;-0.518;2023-05-07T09:52:02;0.70;;;0.50;;
39434;SDS011;66825;51.880;-0.518;2023-05-07T09:54:31;0.57;;;0.40;;
39434;SDS011;66825;51.880;-0.518;2023-05-07T09:56:58;1.33;;;0.45;;
39434;SDS011;66825;51.880;-0.518;2023-05-07T09:59:27;0.50;;;0.47;;
39434;SDS011;66825;51.880;-0.518;2023-05-07T10:01:56;0.70;;;0.50;;
39434;SDS011;66825;51.880;-0.518;2023-05-07T10:04:24;0.40;;;0.40;;
39434;SDS011;66825;51.880;-0.518;2023-05-07T10:06:51;0.63;;;0.40;;
39434;SDS011;66825;51.880;-0.518;2023-05-07T10:09:18;0.63;;;0.60;;
39434;SDS011;66825;51.880;-0.518;2023-05-07T10:11:45;0.50;;;0.50;;
39434;SDS011;66825;51.880;-0.518;2023-05-07T10:14:13;0.40;;;0.40;;
39434;SDS011;66825;51.880;-0.518;2023-05-07T10:16:39;0.70;;;0.55;;
39434;SDS011;66825;51.880;-0.518;2023-05-07T10:19:06;0.57;;;0.50;;
39434;SDS011;66825;51.880;-0.518;2023-05-07T10:21:35;0.50;;;0.40;;
39434;SDS011;66825;51.880;-0.518;2023-05-07T10:26:57;0.40;;;0.40;;
39434;SDS011;66825;51.880;-0.518;2023-05-07T10:34:40;0.38;;;0.32;;
39434;SDS011;66825;51.880;-0.518;2023-05-07T10:37:08;0.50;;;0.40;;
39434;SDS011;66825;51.880;-0.518;2023-05-07T10:39:35;0.63;;;0.55;;
39434;SDS011;66825;51.880;-0.518;2023-05-07T10:42:07;0.40;;;0.40;;
39434;SDS011;66825;51.880;-0.518;2023-05-07T10:44:34;0.40;;;0.40;;
39434;SDS011;66825;51.880;-0.518;2023-05-07T10:47:06;0.45;;;0.40;;
39434;SDS011;66825;51.880;-0.518;2023-05-07T10:50:19;0.60;;;0.50;;
39434;SDS011;66825;51.880;-0.518;2023-05-07T10:52:21;0.40;;;0.40;;
39434;SDS011;66825;51.880;-0.518;2023-05-07T10:54:48;0.60;;;0.43;;
39434;SDS011;66825;51.880;-0.518;2023-05-07T10:57:55;0.60;;;0.30;;
39434;SDS011;66825;51.880;-0.518;2023-05-07T11:05:26;0.50;;;0.30;;
39434;SDS011;66825;51.880;-0.518;2023-05-07T11:07:59;0.60;;;0.40;;
39434;SDS011;66825;51.880;-0.518;2023-05-07T11:10:47;0.20;;;0.20;;
39434;SDS011;66825;51.880;-0.518;2023-05-07T11:13:17;0.70;;;0.40;;
39434;SDS011;66825;51.880;-0.518;2023-05-07T11:15:44;0.50;;;0.40;;
39434;SDS011;66825;51.880;-0.518;2023-05-07T11:18:11;0.40;;;0.40;;
39434;SDS011;66825;51.880;-0.518;2023-05-07T11:20:48;0.50;;;0.40;;
39434;SDS011;66825;51.880;-0.518;2023-05-07T11:26:07;0.50;;;0.40;;
39434;SDS011;66825;51.880;-0.518;2023-05-07T11:28:43;0.70;;;0.40;;
39434;SDS011;66825;51.880;-0.518;2023-05-07T11:31:09;0.40;;;0.32;;
39434;SDS011;66825;51.880;-0.518;2023-05-07T11:33:36;0.50;;;0.40;;
39434;SDS011;66825;51.880;-0.518;2023-05-07T11:36:03;0.50;;;0.40;;
39434;SDS011;66825;51.880;-0.518;2023-05-07T11:38:29;0.47;;;0.40;;
39434;SDS011;66825;51.880;-0.518;2023-05-07T11:40:56;0.50;;;0.40;;
39434;SDS011;66825;51.880;-0.518;2023-05-07T11:43:23;0.30;;;0.30;;
39434;SDS011;66825;51.880;-0.518;2023-05-07T11:45:49;0.68;;;0.40;;
39434;SDS011;66825;51.880;-0.518;2023-05-07T11:48:15;0.32;;;0.32;;
39434;SDS011;66825;51.880;-0.518;2023-05-07T11:50:59;0.93;;;0.38;;
39434;SDS011;66825;51.880;-0.518;2023-05-07T11:53:36;0.30;;;0.30;;
39434;SDS011;66825;51.880;-0.518;2023-05-07T11:56:16;0.30;;;0.30;;
39434;SDS011;66825;51.880;-0.518;2023-05-07T11:58:42;0.40;;;0.40;;
39434;SDS011;66825;51.880;-0.518;2023-05-07T12:01:10;0.35;;;0.30;;
39434;SDS011;66825;51.880;-0.518;2023-05-07T12:03:37;0.40;;;0.30;;
39434;SDS011;66825;51.880;-0.518;2023-05-07T12:06:05;0.50;;;0.50;;
39434;SDS011;66825;51.880;-0.518;2023-05-07T12:08:31;0.30;;;0.30;;
39434;SDS011;66825;51.880;-0.518;2023-05-07T12:10:57;0.40;;;0.30;;
39434;SDS011;66825;51.880;-0.518;2023-05-07T12:13:24;0.30;;;0.30;;
39434;SDS011;66825;51.880;-0.518;2023-05-07T12:15:51;0.40;;;0.30;;
39434;SDS011;66825;51.880;-0.518;2023-05-07T12:18:17;0.50;;;0.50;;
39434;SDS011;66825;51.880;-0.518;2023-05-07T12:20:43;0.40;;;0.30;;
39434;SDS011;66825;51.880;-0.518;2023-05-07T12:23:10;0.40;;;0.40;;
39434;SDS011;66825;51.880;-0.518;2023-05-07T12:25:36;0.30;;;0.30;;
39434;SDS011;66825;51.880;-0.518;2023-05-07T12:28:03;0.43;;;0.40;;
39434;SDS011;66825;51.880;-0.518;2023-05-07T12:30:36;0.60;;;0.30;;
39434;SDS011;66825;51.880;-0.518;2023-05-07T12:33:02;0.40;;;0.40;;
39434;SDS011;66825;51.880;-0.518;2023-05-07T12:35:31;0.30;;;0.30;;
39434;SDS011;66825;51.880;-0.518;2023-05-07T12:37:58;0.40;;;0.33;;
39434;SDS011;66825;51.880;-0.518;2023-05-07T12:40:29;0.40;;;0.30;;
39434;SDS011;66825;51.880;-0.518;2023-05-07T12:43:01;0.30;;;0.30;;
39434;SDS011;66825;51.880;-0.518;2023-05-07T12:45:26;0.40;;;0.40;;
39434;SDS011;66825;51.880;-0.518;2023-05-07T12:47:52;0.40;;;0.30;;
39434;SDS011;66825;51.880;-0.518;2023-05-07T12:50:17;0.60;;;0.40;;
39434;SDS011;66825;51.880;-0.518;2023-05-07T12:52:43;0.30;;;0.30;;
39434;SDS011;66825;51.880;-0.518;2023-05-07T12:55:12;0.30;;;0.30;;
39434;SDS011;66825;51.880;-0.518;2023-05-07T12:57:39;0.35;;;0.30;;
39434;SDS011;66825;51.880;-0.518;2023-05-07T13:00:07;0.40;;;0.30;;
39434;SDS011;66825;51.880;-0.518;2023-05-07T13:02:34;0.30;;;0.30;;
39434;SDS011;66825;51.880;-0.518;2023-05-07T13:05:02;0.30;;;0.30;;
39434;SDS011;66825;51.880;-0.518;2023-05-07T13:07:27;0.40;;;0.40;;
39434;SDS011;66825;51.880;-0.518;2023-05-07T13:09:53;0.50;;;0.40;;
39434;SDS011;66825;51.880;-0.518;2023-05-07T13:12:18;0.50;;;0.40;;
39434;SDS011;66825;51.880;-0.518;2023-05-07T13:14:44;0.30;;;0.20;;
39434;SDS011;66825;51.880;-0.518;2023-05-07T13:17:09;0.63;;;0.40;;
39434;SDS011;66825;51.880;-0.518;2023-05-07T13:19:35;0.20;;;0.20;;
39434;SDS011;66825;51.880;-0.518;2023-05-07T13:22:02;0.30;;;0.30;;
39434;SDS011;66825;51.880;-0.518;2023-05-07T13:24:28;0.40;;;0.30;;
39434;SDS011;66825;51.880;-0.518;2023-05-07T13:26:53;0.50;;;0.35;;
39434;SDS011;66825;51.880;-0.518;2023-05-07T13:29:19;0.40;;;0.40;;
39434;SDS011;66825;51.880;-0.518;2023-05-07T13:31:44;0.35;;;0.35;;
39434;SDS011;66825;51.880;-0.518;2023-05-07T13:34:10;0.45;;;0.38;;
39434;SDS011;66825;51.880;-0.518;2023-05-07T13:36:35;0.40;;;0.30;;
39434;SDS011;66825;51.880;-0.518;2023-05-07T13:39:04;0.45;;;0.35;;
39434;SDS011;66825;51.880;-0.518;2023-05-07T13:41:31;0.40;;;0.30;;
39434;SDS011;66825;51.880;-0.518;2023-05-07T13:43:56;0.40;;;0.30;;
39434;SDS011;66825;51.880;-0.518;2023-05-07T13:46:22;0.30;;;0.30;;
39434;SDS011;66825;51.880;-0.518;2023-05-07T13:48:47;0.52;;;0.30;;
39434;SDS011;66825;51.880;-0.518;2023-05-07T13:51:12;0.50;;;0.40;;
39434;SDS011;66825;51.880;-0.518;2023-05-07T13:53:38;0.30;;;0.30;;
39434;SDS011;66825;51.880;-0.518;2023-05-07T13:56:04;0.40;;;0.30;;
39434;SDS011;66825;51.880;-0.518;2023-05-07T13:58:30;0.47;;;0.38;;
39434;SDS011;66825;51.880;-0.518;2023-05-07T14:00:55;0.35;;;0.30;;
39434;SDS011;66825;51.880;-0.518;2023-05-07T14:03:21;0.40;;;0.30;;
39434;SDS011;66825;51.880;-0.518;2023-05-07T14:05:46;0.30;;;0.30;;
39434;SDS011;66825;51.880;-0.518;2023-05-07T14:08:12;0.32;;;0.32;;
39434;SDS011;66825;51.880;-0.518;2023-05-07T14:10:39;0.30;;;0.30;;
39434;SDS011;66825;51.880;-0.518;2023-05-07T14:13:05;0.68;;;0.30;;
39434;SDS011;66825;51.880;-0.518;2023-05-07T14:15:31;0.40;;;0.30;;
39434;SDS011;66825;51.880;-0.518;2023-05-07T14:17:57;0.30;;;0.30;;
39434;SDS011;66825;51.880;-0.518;2023-05-07T14:20:24;0.40;;;0.30;;
39434;SDS011;66825;51.880;-0.518;2023-05-07T14:22:50;0.40;;;0.30;;
39434;SDS011;66825;51.880;-0.518;2023-05-07T14:25:15;0.35;;;0.30;;
39434;SDS011;66825;51.880;-0.518;2023-05-07T14:27:41;0.60;;;0.40;;
39434;SDS011;66825;51.880;-0.518;2023-05-07T14:30:07;0.32;;;0.30;;
39434;SDS011;66825;51.880;-0.518;2023-05-07T14:32:33;0.25;;;0.25;;
39434;SDS011;66825;51.880;-0.518;2023-05-07T14:34:58;0.50;;;0.20;;
39434;SDS011;66825;51.880;-0.518;2023-05-07T14:37:24;0.40;;;0.30;;
39434;SDS011;66825;51.880;-0.518;2023-05-07T14:39:50;0.50;;;0.30;;
39434;SDS011;66825;51.880;-0.518;2023-05-07T14:42:15;0.47;;;0.40;;
39434;SDS011;66825;51.880;-0.518;2023-05-07T14:44:41;0.30;;;0.30;;